createdAt,value
2019-03-25T00:02:11.027Z,102.47
2019-03-25T00:04:39.518Z,101.97
2019-03-25T00:07:08.594Z,95.10
2019-03-25T00:09:38.672Z,94.33
2019-03-25T00:12:07.355Z,90.07
2019-03-25T00:14:35.934Z,79.73
2019-03-25T00:17:04.473Z,75.90
2019-03-25T00:19:33.022Z,83.03
2019-03-25T00:22:01.607Z,78.30
2019-03-25T00:24:38.736Z,77.50
2019-03-25T00:27:00.404Z,83.43
2019-03-25T00:29:28.981Z,81.07
2019-03-25T00:31:57.594Z,74.10
2019-03-25T00:34:26.135Z,59.90
2019-03-25T00:36:54.637Z,57.53
2019-03-25T00:39:23.117Z,52.87
2019-03-25T00:41:51.672Z,50.83
2019-03-25T00:44:20.256Z,46.83
2019-03-25T00:46:48.810Z,47.67
2019-03-25T00:49:17.368Z,43.83
2019-03-25T00:51:45.990Z,38.93
2019-03-25T00:54:14.544Z,39.03
2019-03-25T00:56:43.092Z,35.23
2019-03-25T00:59:11.650Z,34.20
2019-03-25T01:01:40.285Z,38.27
2019-03-25T01:04:08.841Z,45.37
2019-03-25T01:06:38.345Z,45.27
2019-03-25T01:09:08.735Z,44.67
2019-03-25T01:11:48.442Z,44.53
2019-03-25T01:14:07.682Z,64.17
2019-03-25T01:16:36.272Z,70.07
2019-03-25T01:19:04.966Z,80.93
2019-03-25T01:21:33.590Z,79.93
2019-03-25T01:24:02.179Z,85.80
2019-03-25T01:26:30.740Z,95.93
2019-03-25T01:28:59.285Z,94.60
2019-03-25T01:31:27.936Z,78.87
2019-03-25T01:33:56.566Z,78.47
2019-03-25T01:36:26.645Z,71.67
2019-03-25T01:38:55.231Z,66.90
2019-03-25T01:41:23.783Z,65.43
2019-03-25T01:43:52.338Z,61.67
2019-03-25T01:46:20.991Z,63.43
2019-03-25T01:48:49.538Z,62.20
2019-03-25T01:51:18.010Z,62.27
2019-03-25T01:53:46.676Z,61.43
2019-03-25T01:56:16.260Z,57.30
2019-03-25T01:58:44.883Z,63.17
2019-03-25T02:01:13.394Z,67.60
2019-03-25T02:03:41.940Z,70.13
2019-03-25T02:06:11.986Z,63.13
2019-03-25T02:08:40.495Z,62.33
2019-03-25T02:11:09.113Z,59.30
2019-03-25T02:13:37.883Z,55.80
2019-03-25T02:16:06.603Z,55.87
2019-03-25T02:18:35.153Z,56.57
2019-03-25T02:21:05.265Z,54.77
2019-03-25T02:23:33.842Z,55.70
2019-03-25T02:26:02.402Z,54.90
2019-03-25T02:28:31.092Z,53.20
2019-03-25T02:30:59.641Z,52.70
2019-03-25T02:33:28.192Z,50.63
2019-03-25T02:35:56.669Z,46.50
2019-03-25T02:38:25.287Z,44.83
2019-03-25T02:40:53.913Z,44.00
2019-03-25T02:43:22.464Z,40.90
2019-03-25T02:45:51.115Z,38.37
2019-03-25T02:48:19.661Z,35.73
2019-03-25T02:50:48.287Z,37.83
2019-03-25T02:53:16.804Z,38.67
2019-03-25T02:55:45.413Z,42.67
2019-03-25T02:58:14.041Z,55.07
2019-03-25T03:00:42.733Z,70.47
2019-03-25T03:03:11.304Z,64.83
2019-03-25T03:05:39.870Z,66.37
2019-03-25T03:08:08.554Z,58.87
2019-03-25T03:10:37.461Z,42.30
2019-03-25T03:13:06.158Z,43.27
2019-03-25T03:15:34.777Z,34.50
2019-03-25T03:18:04.780Z,32.80
2019-03-25T03:20:33.385Z,27.47
2019-03-25T03:23:01.941Z,27.13
2019-03-25T03:25:30.507Z,24.10
2019-03-25T03:27:59.058Z,28.07
2019-03-25T03:30:27.598Z,29.13
2019-03-25T03:32:56.146Z,30.73
2019-03-25T03:35:24.709Z,30.20
2019-03-25T03:37:53.366Z,29.63
2019-03-25T03:40:22.059Z,36.67
2019-03-25T03:42:50.747Z,37.90
2019-03-25T03:45:19.430Z,51.23
2019-03-25T03:47:47.992Z,58.57
2019-03-25T03:50:27.249Z,42.23
2019-03-25T03:52:56.630Z,32.47
2019-03-25T03:55:25.741Z,27.17
2019-03-25T03:57:56.622Z,26.73
2019-03-25T04:00:32.978Z,27.13
2019-03-25T04:03:01.635Z,24.23
2019-03-25T04:05:30.255Z,23.07
2019-03-25T04:07:59.050Z,21.77
2019-03-25T04:10:27.766Z,22.33
2019-03-25T04:12:56.450Z,21.50
2019-03-25T04:15:32.314Z,27.43
2019-03-25T04:18:01.514Z,30.13
2019-03-25T04:20:30.898Z,32.07
2019-03-25T04:22:59.542Z,28.77
2019-03-25T04:25:28.154Z,29.07
2019-03-25T04:27:56.778Z,35.80
2019-03-25T04:30:27.240Z,41.70
2019-03-25T04:32:55.846Z,47.33
2019-03-25T04:35:24.537Z,46.50
2019-03-25T04:37:56.205Z,40.00
2019-03-25T04:40:23.431Z,35.63
2019-03-25T04:42:52.074Z,30.40
2019-03-25T04:45:20.681Z,25.70
2019-03-25T04:47:49.230Z,23.10
2019-03-25T04:50:17.878Z,20.87
2019-03-25T04:52:46.429Z,18.73
2019-03-25T04:55:15.042Z,17.07
2019-03-25T04:57:43.696Z,19.03
2019-03-25T05:00:12.677Z,20.60
2019-03-25T05:02:41.222Z,20.47
2019-03-25T05:05:10.034Z,20.80
2019-03-25T05:07:38.613Z,17.60
2019-03-25T05:10:07.725Z,15.00
2019-03-25T05:12:36.267Z,12.63
2019-03-25T05:15:07.003Z,11.47
2019-03-25T05:17:35.615Z,12.27
2019-03-25T05:20:04.990Z,13.47
2019-03-25T05:22:33.536Z,18.80
2019-03-25T05:25:02.152Z,23.17
2019-03-25T05:27:30.718Z,20.10
2019-03-25T05:29:59.189Z,15.97
2019-03-25T05:32:27.730Z,12.60
2019-03-25T05:34:56.298Z,10.47
2019-03-25T05:37:24.837Z,10.73
2019-03-25T05:39:53.382Z,10.13
2019-03-25T05:42:22.078Z,10.77
2019-03-25T05:44:50.568Z,10.57
2019-03-25T05:47:19.110Z,10.40
2019-03-25T05:49:47.690Z,10.00
2019-03-25T05:52:16.164Z,9.00
2019-03-25T05:54:44.779Z,9.37
2019-03-25T05:57:13.357Z,10.73
2019-03-25T05:59:41.903Z,11.17
2019-03-25T06:02:10.370Z,10.07
2019-03-25T06:04:38.950Z,9.73
2019-03-25T06:07:07.490Z,10.43
2019-03-25T06:09:36.098Z,14.20
2019-03-25T06:12:04.675Z,14.87
2019-03-25T06:14:33.214Z,13.80
2019-03-25T06:17:01.759Z,12.30
2019-03-25T06:19:30.424Z,14.03
2019-03-25T06:21:58.969Z,13.00
2019-03-25T06:24:27.580Z,12.40
2019-03-25T06:26:56.232Z,11.30
2019-03-25T06:29:26.855Z,10.83
2019-03-25T06:31:55.039Z,11.10
2019-03-25T06:34:23.612Z,10.10
2019-03-25T06:36:52.161Z,10.27
2019-03-25T06:39:20.696Z,10.83
2019-03-25T06:41:49.191Z,11.33
2019-03-25T06:44:17.734Z,11.83
2019-03-25T06:46:47.602Z,10.83
2019-03-25T06:49:16.131Z,12.80
2019-03-25T06:51:45.749Z,12.57
2019-03-25T06:54:14.323Z,11.17
2019-03-25T06:56:42.870Z,11.53
2019-03-25T06:59:11.415Z,10.67
2019-03-25T07:01:40.121Z,9.77
2019-03-25T07:04:08.662Z,11.23
2019-03-25T07:06:37.269Z,10.67
2019-03-25T07:09:07.586Z,10.57
2019-03-25T07:11:36.374Z,10.77
2019-03-25T07:14:05.209Z,9.43
2019-03-25T07:16:33.785Z,9.00
2019-03-25T07:19:02.343Z,10.10
2019-03-25T07:21:30.950Z,11.20
2019-03-25T07:24:00.590Z,9.87
2019-03-25T07:26:29.143Z,9.43
2019-03-25T07:28:57.753Z,10.03
2019-03-25T07:31:26.252Z,9.73
2019-03-25T07:33:54.869Z,10.30
2019-03-25T07:36:23.329Z,9.83
2019-03-25T07:38:51.801Z,9.77
2019-03-25T07:41:20.484Z,9.13
2019-03-25T07:43:49.053Z,9.03
2019-03-25T07:46:17.582Z,8.60
2019-03-25T07:48:46.046Z,8.33
2019-03-25T07:51:14.574Z,8.20
2019-03-25T07:53:43.130Z,7.77
2019-03-25T07:56:11.797Z,7.73
2019-03-25T07:58:40.337Z,8.00
2019-03-25T08:01:08.890Z,8.03
2019-03-25T08:03:37.448Z,7.97
2019-03-25T08:06:06.067Z,7.63
2019-03-25T08:08:34.675Z,7.43
2019-03-25T08:11:03.505Z,8.17
2019-03-25T08:13:31.969Z,7.53
2019-03-25T08:16:02.340Z,7.63
2019-03-25T08:18:30.945Z,7.23
2019-03-25T08:20:59.553Z,6.87
2019-03-25T08:23:28.022Z,7.23
2019-03-25T08:25:56.669Z,7.77
2019-03-25T08:28:25.206Z,7.70
2019-03-25T08:30:53.818Z,7.97
2019-03-25T08:33:22.531Z,6.93
2019-03-25T08:35:51.164Z,6.60
2019-03-25T08:38:19.848Z,6.77
2019-03-25T08:40:48.555Z,6.93
2019-03-25T08:43:17.234Z,7.30
2019-03-25T08:45:45.769Z,6.90
2019-03-25T08:48:14.279Z,7.40
2019-03-25T08:50:42.883Z,6.40
2019-03-25T08:53:11.501Z,5.67
2019-03-25T08:55:40.082Z,6.30
2019-03-25T08:58:12.191Z,6.83
2019-03-25T09:00:40.610Z,6.93
2019-03-25T09:03:09.170Z,6.47
2019-03-25T09:05:37.702Z,6.17
2019-03-25T09:08:06.382Z,6.80
2019-03-25T09:10:35.031Z,7.53
2019-03-25T09:13:03.722Z,6.50
2019-03-25T09:15:32.338Z,6.33
2019-03-25T09:18:00.902Z,5.57
2019-03-25T09:20:29.510Z,6.30
2019-03-25T09:22:58.221Z,6.10
2019-03-25T09:25:26.858Z,6.27
2019-03-25T09:27:55.608Z,5.90
2019-03-25T09:30:43.762Z,5.83
2019-03-25T09:33:12.307Z,6.20
2019-03-25T09:35:40.922Z,5.43
2019-03-25T09:38:09.609Z,5.10
2019-03-25T09:40:38.218Z,4.83
2019-03-25T09:43:06.778Z,4.70
2019-03-25T09:45:35.244Z,5.53
2019-03-25T09:48:04.029Z,5.60
2019-03-25T09:50:32.669Z,5.60
2019-03-25T09:53:01.268Z,7.27
2019-03-25T09:55:29.810Z,5.97
2019-03-25T09:57:58.442Z,5.70
2019-03-25T10:00:33.580Z,5.10
2019-03-25T10:03:02.242Z,5.43
2019-03-25T10:05:31.861Z,5.77
2019-03-25T10:08:00.330Z,5.70
2019-03-25T10:10:28.900Z,4.77
2019-03-25T10:12:58.886Z,6.00
2019-03-25T10:15:27.502Z,5.97
2019-03-25T10:17:56.125Z,5.87
2019-03-25T10:20:24.764Z,5.30
2019-03-25T10:22:53.441Z,4.87
2019-03-25T10:25:22.045Z,5.40
2019-03-25T10:27:50.698Z,5.93
2019-03-25T10:30:19.386Z,5.70
2019-03-25T10:32:47.991Z,5.37
2019-03-25T10:35:16.666Z,5.07
2019-03-25T10:37:45.261Z,4.97
2019-03-25T10:40:14.338Z,5.23
2019-03-25T10:42:43.045Z,5.60
2019-03-25T10:45:12.038Z,5.30
2019-03-25T10:47:40.608Z,4.87
2019-03-25T10:50:09.507Z,5.13
2019-03-25T10:52:38.114Z,4.90
2019-03-25T10:55:07.877Z,4.87
2019-03-25T10:57:36.800Z,3.93
2019-03-25T11:00:07.341Z,3.40
2019-03-25T11:02:35.944Z,2.80
2019-03-25T11:05:06.660Z,3.03
2019-03-25T11:07:35.433Z,2.83
2019-03-25T11:10:06.898Z,3.07
2019-03-25T11:12:36.477Z,3.43
2019-03-25T11:15:07.754Z,3.60
2019-03-25T11:17:36.573Z,2.80
2019-03-25T11:20:09.494Z,2.77
2019-03-25T11:22:38.093Z,2.70
2019-03-25T11:25:07.290Z,2.90
2019-03-25T11:27:35.938Z,2.43
2019-03-25T11:30:07.546Z,2.83
2019-03-25T11:32:36.156Z,2.23
2019-03-25T11:35:09.648Z,2.33
2019-03-25T11:37:38.258Z,3.37
2019-03-25T11:40:10.729Z,2.70
2019-03-25T11:42:39.241Z,2.90
2019-03-25T11:45:09.578Z,2.33
2019-03-25T11:47:38.192Z,3.20
2019-03-25T11:50:08.065Z,2.83
2019-03-25T11:52:36.773Z,3.13
2019-03-25T11:55:06.857Z,2.40
2019-03-25T11:57:35.466Z,2.93
2019-03-25T12:00:08.704Z,3.20
2019-03-25T12:02:37.639Z,3.17
2019-03-25T12:05:07.413Z,2.53
2019-03-25T12:07:35.934Z,2.73
2019-03-25T12:10:05.943Z,2.90
2019-03-25T12:12:34.482Z,3.30
2019-03-25T12:15:03.047Z,3.37
2019-03-25T12:17:31.585Z,3.97
2019-03-25T12:20:00.565Z,3.07
2019-03-25T12:22:29.181Z,2.77
2019-03-25T12:24:57.652Z,2.60
2019-03-25T12:27:26.287Z,2.60
2019-03-25T12:29:54.942Z,2.60
2019-03-25T12:32:23.550Z,2.63
2019-03-25T12:34:52.166Z,3.10
2019-03-25T12:37:20.733Z,2.10
2019-03-25T12:39:49.322Z,2.67
2019-03-25T12:42:17.994Z,2.70
2019-03-25T12:44:46.767Z,2.97
2019-03-25T12:47:15.368Z,2.80
2019-03-25T12:49:43.907Z,2.90
2019-03-25T12:52:12.737Z,3.23
2019-03-25T12:54:41.210Z,3.27
2019-03-25T12:57:09.684Z,3.93
2019-03-25T12:59:41.558Z,3.63
2019-03-25T13:02:08.521Z,5.10
2019-03-25T13:04:36.991Z,5.37
2019-03-25T13:07:06.983Z,6.20
2019-03-25T13:09:35.521Z,5.63
2019-03-25T13:12:04.398Z,6.53
2019-03-25T13:14:35.072Z,6.27
2019-03-25T13:17:03.359Z,6.57
2019-03-25T13:19:33.409Z,6.73
2019-03-25T13:22:01.977Z,6.97
2019-03-25T13:24:30.522Z,7.43
2019-03-25T13:26:59.130Z,7.13
2019-03-25T13:29:27.672Z,7.70
2019-03-25T13:31:56.150Z,8.30
2019-03-25T13:34:24.714Z,7.43
2019-03-25T13:36:53.249Z,7.97
2019-03-25T13:39:21.863Z,8.03
2019-03-25T13:41:50.359Z,8.77
2019-03-25T13:44:18.902Z,8.83
2019-03-25T13:46:47.454Z,9.13
2019-03-25T13:49:16.009Z,10.20
2019-03-25T13:51:44.536Z,9.50
2019-03-25T13:54:13.077Z,9.83
2019-03-25T13:56:41.770Z,9.30
2019-03-25T13:59:10.298Z,9.47
2019-03-25T14:01:38.861Z,10.27
2019-03-25T14:04:07.399Z,9.77
2019-03-25T14:06:35.940Z,10.57
2019-03-25T14:09:06.226Z,10.27
2019-03-25T14:11:34.737Z,9.57
2019-03-25T14:14:03.280Z,10.20
2019-03-25T14:16:33.492Z,11.73
2019-03-25T14:19:02.240Z,11.17
2019-03-25T14:21:31.077Z,10.50
2019-03-25T14:23:59.577Z,10.23
2019-03-25T14:26:28.129Z,11.33
2019-03-25T14:28:56.811Z,10.13
2019-03-25T14:31:25.454Z,10.70
2019-03-25T14:33:54.008Z,14.53
2019-03-25T14:36:22.574Z,16.00
2019-03-25T14:38:51.113Z,17.70
2019-03-25T14:41:19.657Z,17.57
2019-03-25T14:43:48.198Z,20.23
2019-03-25T14:46:16.764Z,8.20
2019-03-25T14:48:45.442Z,11.17
2019-03-25T14:51:13.938Z,4.93
2019-03-25T14:53:45.226Z,4.03
2019-03-25T14:56:12.726Z,4.13
2019-03-25T14:58:41.380Z,4.67
2019-03-25T15:01:10.052Z,6.13
2019-03-25T15:03:38.597Z,5.77
2019-03-25T15:06:07.233Z,5.43
2019-03-25T15:08:35.916Z,6.57
2019-03-25T15:11:04.662Z,5.40
2019-03-25T15:13:33.309Z,5.50
2019-03-25T15:16:01.917Z,5.07
2019-03-25T15:18:30.451Z,6.00
2019-03-25T15:20:59.090Z,5.60
2019-03-25T15:23:27.563Z,5.73
2019-03-25T15:25:56.165Z,4.93
2019-03-25T15:28:24.746Z,4.53
2019-03-25T15:30:53.305Z,5.17
2019-03-25T15:33:21.849Z,4.30
2019-03-25T15:35:50.486Z,4.27
2019-03-25T15:38:19.017Z,4.67
2019-03-25T15:40:47.624Z,4.93
2019-03-25T15:43:16.203Z,4.47
2019-03-25T15:45:44.737Z,4.70
2019-03-25T15:48:13.201Z,4.37
2019-03-25T15:50:41.773Z,4.63
2019-03-25T15:53:10.306Z,4.63
2019-03-25T15:55:38.909Z,4.93
2019-03-25T15:58:07.618Z,4.27
2019-03-25T16:00:46.996Z,4.37
2019-03-25T16:03:06.700Z,4.93
2019-03-25T16:05:35.346Z,4.47
2019-03-25T16:08:04.020Z,4.30
2019-03-25T16:10:32.564Z,4.50
2019-03-25T16:13:01.057Z,3.60
2019-03-25T16:15:43.081Z,3.70
2019-03-25T16:18:20.346Z,3.80
2019-03-25T16:20:48.957Z,3.67
2019-03-25T16:23:17.730Z,3.60
2019-03-25T16:25:46.274Z,4.10
2019-03-25T16:28:14.818Z,4.33
2019-03-25T16:30:43.397Z,3.63
2019-03-25T16:33:12.010Z,3.93
2019-03-25T16:35:40.628Z,3.87
2019-03-25T16:38:09.266Z,4.73
2019-03-25T16:40:37.793Z,4.10
2019-03-25T16:43:06.438Z,3.73
2019-03-25T16:45:35.118Z,3.93
2019-03-25T16:48:03.740Z,4.33
2019-03-25T16:50:32.361Z,3.83
2019-03-25T16:53:00.952Z,4.03
2019-03-25T16:55:29.567Z,2.90
2019-03-25T16:57:58.131Z,3.00
2019-03-25T17:00:27.780Z,3.10
2019-03-25T17:02:56.530Z,2.43
2019-03-25T17:05:25.148Z,2.47
2019-03-25T17:07:53.745Z,2.50
2019-03-25T17:10:22.358Z,2.60
2019-03-25T17:12:51.003Z,2.47
2019-03-25T17:15:19.710Z,2.90
2019-03-25T17:17:48.324Z,4.67
2019-03-25T17:20:16.958Z,3.57
2019-03-25T17:22:45.515Z,7.30
2019-03-25T17:25:15.325Z,7.43
2019-03-25T17:27:43.909Z,5.50
2019-03-25T17:30:14.710Z,6.03
2019-03-25T17:32:43.401Z,3.73
2019-03-25T17:35:12.312Z,3.73
2019-03-25T17:37:40.929Z,4.00
2019-03-25T17:40:09.822Z,3.00
2019-03-25T17:42:38.376Z,3.63
2019-03-25T17:45:08.161Z,9.70
2019-03-25T17:47:36.840Z,7.20
2019-03-25T17:50:07.446Z,4.50
2019-03-25T17:52:36.055Z,4.93
2019-03-25T17:55:06.405Z,6.00
2019-03-25T17:57:35.189Z,4.00
2019-03-25T18:00:09.438Z,5.07
2019-03-25T18:02:38.045Z,5.23
2019-03-25T18:05:08.684Z,4.90
2019-03-25T18:07:37.366Z,3.50
2019-03-25T18:10:08.005Z,3.40
2019-03-25T18:12:39.118Z,3.40
2019-03-25T18:15:09.708Z,3.40
2019-03-25T18:17:38.395Z,4.23
2019-03-25T18:20:18.171Z,3.40
2019-03-25T18:22:39.768Z,3.30
2019-03-25T18:25:08.935Z,4.83
2019-03-25T18:27:37.567Z,4.40
2019-03-25T18:30:07.277Z,5.20
2019-03-25T18:32:35.810Z,4.43
2019-03-25T18:35:05.818Z,4.43
2019-03-25T18:37:34.360Z,4.00
2019-03-25T18:40:03.047Z,3.80
2019-03-25T18:42:31.745Z,4.70
2019-03-25T18:45:01.778Z,4.93
2019-03-25T18:47:30.385Z,4.10
2019-03-25T18:49:59.021Z,5.70
2019-03-25T18:52:27.571Z,4.33
2019-03-25T18:54:56.256Z,5.03
2019-03-25T18:57:24.935Z,5.40
2019-03-25T18:59:54.678Z,5.23
2019-03-25T19:02:23.422Z,4.57
2019-03-25T19:04:53.686Z,5.57
2019-03-25T19:07:22.351Z,5.53
2019-03-25T19:09:53.643Z,5.17
2019-03-25T19:12:22.386Z,5.50
2019-03-25T19:14:51.002Z,5.40
2019-03-25T19:17:19.609Z,4.77
2019-03-25T19:19:48.179Z,5.73
2019-03-25T19:22:16.815Z,6.30
2019-03-25T19:24:45.410Z,5.43
2019-03-25T19:27:13.975Z,5.17
2019-03-25T19:29:42.516Z,6.17
2019-03-25T19:32:11.115Z,6.70
2019-03-25T19:34:41.505Z,8.33
2019-03-25T19:37:10.113Z,6.40
2019-03-25T19:39:38.691Z,6.00
2019-03-25T19:42:07.238Z,6.53
2019-03-25T19:44:35.774Z,6.70
2019-03-25T19:47:04.421Z,6.93
2019-03-25T19:49:33.001Z,6.73
2019-03-25T19:52:01.570Z,6.30
2019-03-25T19:54:30.091Z,7.07
2019-03-25T19:56:58.643Z,8.90
2019-03-25T19:59:27.177Z,8.20
2019-03-25T20:01:55.761Z,10.80
2019-03-25T20:04:24.576Z,7.80
2019-03-25T20:06:53.255Z,8.83
2019-03-25T20:09:23.365Z,8.80
2019-03-25T20:11:51.908Z,11.40
2019-03-25T20:14:20.463Z,12.10
2019-03-25T20:16:49.105Z,9.93
2019-03-25T20:19:17.698Z,9.87
2019-03-25T20:21:46.327Z,9.87
2019-03-25T20:24:14.820Z,8.30
2019-03-25T20:26:44.327Z,7.67
2019-03-25T20:29:12.849Z,7.07
2019-03-25T20:31:41.550Z,7.70
2019-03-25T20:34:11.437Z,7.37
2019-03-25T20:36:40.155Z,6.80
2019-03-25T20:39:09.605Z,7.03
2019-03-25T20:41:38.220Z,7.37
2019-03-25T20:44:06.836Z,7.40
2019-03-25T20:46:35.401Z,8.40
2019-03-25T20:49:04.020Z,7.37
2019-03-25T20:51:32.629Z,7.83
2019-03-25T20:54:01.223Z,8.10
2019-03-25T20:56:29.755Z,8.43
2019-03-25T20:58:58.519Z,8.30
2019-03-25T21:01:27.062Z,8.67
2019-03-25T21:03:55.601Z,8.57
2019-03-25T21:06:24.276Z,8.47
2019-03-25T21:08:52.774Z,7.57
2019-03-25T21:11:21.334Z,8.17
2019-03-25T21:13:49.902Z,7.93
2019-03-25T21:16:18.509Z,7.90
2019-03-25T21:18:47.268Z,7.53
2019-03-25T21:21:15.984Z,7.33
2019-03-25T21:23:44.589Z,8.40
2019-03-25T21:26:13.153Z,9.10
2019-03-25T21:28:41.834Z,8.47
2019-03-25T21:31:11.888Z,9.23
2019-03-25T21:33:40.637Z,8.63
2019-03-25T21:36:09.347Z,9.47
2019-03-25T21:38:37.916Z,8.93
2019-03-25T21:41:06.453Z,8.53
2019-03-25T21:43:35.075Z,9.00
2019-03-25T21:46:03.702Z,8.63
2019-03-25T21:48:32.296Z,8.47
2019-03-25T21:51:00.811Z,10.57
2019-03-25T21:53:29.370Z,10.20
2019-03-25T21:55:58.045Z,9.80
2019-03-25T21:58:26.574Z,9.40
2019-03-25T22:00:55.114Z,10.80
2019-03-25T22:03:23.763Z,11.27
2019-03-25T22:05:52.377Z,15.57
2019-03-25T22:08:20.846Z,15.83
2019-03-25T22:10:49.418Z,14.03
2019-03-25T22:13:18.027Z,14.47
2019-03-25T22:15:46.638Z,13.37
2019-03-25T22:18:15.281Z,12.30
2019-03-25T22:20:43.834Z,11.90
2019-03-25T22:23:12.465Z,13.90
2019-03-25T22:25:41.034Z,13.30
2019-03-25T22:28:09.510Z,13.87
2019-03-25T22:30:38.135Z,12.97
2019-03-25T22:33:06.877Z,12.83
2019-03-25T22:35:35.493Z,12.47
2019-03-25T22:38:04.109Z,14.37
2019-03-25T22:40:32.753Z,13.93
2019-03-25T22:43:01.303Z,13.47
2019-03-25T22:45:30.385Z,13.60
2019-03-25T22:47:59.102Z,13.73
2019-03-25T22:50:29.084Z,14.00
2019-03-25T22:52:58.269Z,13.57
2019-03-25T22:55:27.025Z,13.70
2019-03-25T22:57:55.499Z,14.00
2019-03-25T23:00:25.817Z,13.77
2019-03-25T23:02:55.201Z,13.57
2019-03-25T23:05:23.841Z,15.03
2019-03-25T23:07:52.393Z,15.30
2019-03-25T23:10:20.957Z,15.60
2019-03-25T23:12:49.430Z,14.10
2019-03-25T23:15:17.973Z,13.93
2019-03-25T23:17:46.543Z,13.20
2019-03-25T23:20:15.162Z,13.40
2019-03-25T23:22:43.699Z,13.27
2019-03-25T23:25:12.355Z,13.27
2019-03-25T23:27:40.895Z,13.77
2019-03-25T23:30:09.577Z,12.30
2019-03-25T23:32:38.197Z,13.20
2019-03-25T23:35:07.012Z,13.73
2019-03-25T23:37:35.669Z,14.23
2019-03-25T23:40:06.249Z,13.40
2019-03-25T23:42:34.781Z,14.03
2019-03-25T23:45:03.517Z,14.97
2019-03-25T23:47:32.301Z,14.23
2019-03-25T23:50:00.769Z,15.30
2019-03-25T23:52:29.341Z,15.07
2019-03-25T23:54:57.898Z,15.87
2019-03-25T23:57:26.514Z,16.33
2019-03-25T23:59:55.064Z,16.80
